Time;durP1;ratioP1;P1;durP2;ratioP2;P2;SDS_P1;SDS_P2;PMS_P1;PMS_P2;Temp;Humidity;BMP_temperature;BMP_pressure;BME280_temperature;BME280_humidity;BME280_pressure;Samples;Min_cycle;Max_cycle;Signal;HPM_P1;HPM_P2
2021/11/07 00:00:13;;;;;;;24.92;4.47;;;;;;;-142.75;100.00;77432.56;5026204;28;20033;-68
2021/11/07 00:05:21;;;;;;;13.65;3.92;;;;;;;-142.75;100.00;77420.75;5026019;28;20056;-67
2021/11/07 00:13:13;;;;;;;19.65;4.20;;;;;;;-142.75;100.00;77399.09;5018037;28;20033;-65
2021/11/07 00:15:39;;;;;;;23.10;5.25;;;;;;;-142.75;100.00;77393.19;5003543;28;20030;-65
2021/11/07 00:18:11;;;;;;;25.92;4.57;;;;;;;-142.75;100.00;77393.19;4986718;28;20033;-65
2021/11/07 00:20:45;;;;;;;19.98;5.20;;;;;;;-142.75;100.00;77395.16;5000628;28;20025;-66
2021/11/07 00:26:02;;;;;;;17.77;4.60;;;;;;;-142.75;100.00;77389.25;5000256;28;20064;-66
2021/11/07 00:28:42;;;;;;;19.92;4.80;;;;;;;-142.75;100.00;77391.22;5004973;28;20026;-65
2021/11/07 00:31:31;;;;;;;22.17;5.45;;;;;;;-142.75;100.00;77387.28;5000122;28;20485;-65
2021/11/07 00:36:36;;;;;;;16.73;4.90;;;;;;;-142.75;100.00;77377.44;5002702;28;20034;-65
2021/11/07 00:41:40;;;;;;;17.10;4.38;;;;;;;-142.75;100.00;77369.56;5004013;28;20049;-66
2021/11/07 00:44:09;;;;;;;20.55;4.90;;;;;;;-142.75;100.00;77351.84;4998970;28;20025;-66
2021/11/07 00:46:59;;;;;;;14.82;4.03;;;;;;;-142.75;100.00;77371.53;5001112;28;20026;-66
2021/11/07 00:49:31;;;;;;;24.15;4.57;;;;;;;-142.75;100.00;77367.59;5002569;28;20044;-66
2021/11/07 00:55:01;;;;;;;25.63;4.07;;;;;;;-142.75;100.00;77357.75;5004492;28;20061;-66
2021/11/07 00:57:39;;;;;;;22.70;5.20;;;;;;;-142.75;100.00;77342.00;4999482;28;20471;-66
2021/11/07 01:03:13;;;;;;;27.73;4.72;;;;;;;-142.75;100.00;77314.44;4929195;29;20095;-67
2021/11/07 01:05:39;;;;;;;13.77;4.40;;;;;;;-142.75;100.00;77312.47;4990658;28;20473;-67
2021/11/07 01:08:05;;;;;;;25.35;3.78;;;;;;;-142.75;100.00;77306.56;5008148;28;20117;-65
2021/11/07 01:10:30;;;;;;;18.65;3.83;;;;;;;-142.75;100.00;77318.38;5007685;28;20037;-66
2021/11/07 01:12:57;;;;;;;18.98;3.65;;;;;;;-142.75;100.00;77322.31;4990898;28;20032;-66
2021/11/07 01:15:24;;;;;;;23.73;4.30;;;;;;;-142.75;100.00;77326.25;5009181;28;20408;-66
2021/11/07 01:17:50;;;;;;;17.73;3.72;;;;;;;-142.75;100.00;77302.63;5008204;28;20120;-66
2021/11/07 01:20:17;;;;;;;20.55;4.93;;;;;;;-142.75;100.00;77302.63;4990040;28;20105;-66
2021/11/07 01:22:54;;;;;;;15.18;3.75;;;;;;;-142.75;100.00;77310.50;5008420;28;20072;-66
2021/11/07 01:25:20;;;;;;;24.20;4.35;;;;;;;-142.75;100.00;77312.47;5007009;28;20088;-67
2021/11/07 01:27:46;;;;;;;27.80;4.68;;;;;;;-142.75;100.00;77310.50;5008896;28;20025;-66
2021/11/07 01:30:17;;;;;;;24.38;4.18;;;;;;;-142.75;100.00;77290.81;5007302;28;20029;-66
2021/11/07 01:32:48;;;;;;;25.60;5.72;;;;;;;-142.75;100.00;77282.94;5008517;28;20049;-66
2021/11/07 01:35:21;;;;;;;29.73;5.07;;;;;;;-142.75;100.00;77282.94;5008293;28;20415;-66
2021/11/07 01:40:57;;;;;;;23.45;4.82;;;;;;;-142.75;100.00;77288.84;4963775;28;20445;-66
2021/11/07 01:43:22;;;;;;;18.42;5.07;;;;;;;-142.75;100.00;77279.00;4990651;28;20052;-66
2021/11/07 01:45:53;;;;;;;27.35;4.93;;;;;;;-142.75;100.00;77249.47;4991388;28;20057;-67
2021/11/07 01:48:26;;;;;;;22.17;5.05;;;;;;;-142.75;100.00;77243.56;5008180;28;20468;-67
2021/11/07 01:51:01;;;;;;;24.15;4.75;;;;;;;-142.75;100.00;77241.59;5007446;28;20025;-66
2021/11/07 01:53:32;;;;;;;20.23;4.65;;;;;;;-142.75;100.00;77267.19;5007992;28;20026;-66
2021/11/07 01:56:03;;;;;;;19.48;5.07;;;;;;;-142.75;100.00;77263.25;5008059;28;20080;-66
2021/11/07 01:58:30;;;;;;;18.77;5.07;;;;;;;-142.75;100.00;77269.16;5008147;28;20411;-66
2021/11/07 02:00:56;;;;;;;20.88;5.78;;;;;;;-142.75;100.00;77255.38;5007266;28;20391;-66
2021/11/07 02:03:22;;;;;;;18.58;5.95;;;;;;;-142.75;100.00;77251.44;5007703;28;20080;-66
2021/11/07 02:05:48;;;;;;;23.88;6.50;;;;;;;-142.75;100.00;77231.75;5008256;28;20030;-66
2021/11/07 02:08:13;;;;;;;19.77;5.25;;;;;;;-142.75;100.00;77217.97;5007728;28;20021;-66
2021/11/07 02:10:40;;;;;;;15.45;4.80;;;;;;;-142.75;100.00;77214.03;5007592;28;20030;-66
2021/11/07 02:13:07;;;;;;;20.50;5.70;;;;;;;-142.75;100.00;77214.03;5007785;28;20041;-67
2021/11/07 02:15:32;;;;;;;28.55;6.40;;;;;;;-142.75;100.00;77212.06;5008557;28;20522;-66
2021/11/07 02:17:58;;;;;;;22.95;6.25;;;;;;;-142.75;100.00;77184.50;5010832;28;20030;-66
2021/11/07 02:20:28;;;;;;;29.90;6.10;;;;;;;-142.75;100.00;77182.53;4993245;28;20030;-66
2021/11/07 02:22:53;;;;;;;22.27;6.15;;;;;;;-142.75;100.00;77182.53;5011439;28;20752;-66
2021/11/07 02:25:19;;;;;;;20.38;6.15;;;;;;;-142.75;100.00;77182.53;4993960;28;20125;-66
2021/11/07 02:27:46;;;;;;;25.60;6.10;;;;;;;-142.75;100.00;77160.88;4994169;28;20026;-66
2021/11/07 02:30:14;;;;;;;19.92;6.30;;;;;;;-142.75;100.00;77180.56;4992997;28;20022;-66
2021/11/07 02:32:42;;;;;;;17.98;6.18;;;;;;;-142.75;100.00;77184.50;5011590;28;20025;-66
2021/11/07 02:35:07;;;;;;;20.60;5.65;;;;;;;-142.75;100.00;77206.16;5011332;28;20028;-66
2021/11/07 02:37:33;;;;;;;16.75;5.82;;;;;;;-142.75;100.00;77168.75;5011186;28;20029;-66
2021/11/07 02:39:58;;;;;;;20.45;6.30;;;;;;;-142.75;100.00;77174.66;5010481;28;20026;-66
2021/11/07 02:42:24;;;;;;;23.33;6.10;;;;;;;-142.75;100.00;77156.94;5011250;28;20042;-66
2021/11/07 02:44:49;;;;;;;19.80;6.78;;;;;;;-142.75;100.00;77166.78;5011516;28;20034;-66
2021/11/07 02:47:16;;;;;;;17.48;5.80;;;;;;;-142.75;100.00;77145.13;5011459;28;20026;-66
2021/11/07 02:49:42;;;;;;;20.80;5.93;;;;;;;-142.75;100.00;77162.84;5010540;28;20518;-66
2021/11/07 02:52:10;;;;;;;18.20;5.82;;;;;;;-142.75;100.00;77149.06;5010964;28;20026;-66
2021/11/07 02:54:37;;;;;;;18.67;6.10;;;;;;;-142.75;100.00;77137.25;5010904;28;20025;-66
2021/11/07 02:57:07;;;;;;;18.92;5.53;;;;;;;-142.75;100.00;77125.44;5011008;28;20025;-66
2021/11/07 02:59:36;;;;;;;16.80;5.55;;;;;;;-142.75;100.00;77125.44;5009194;28;20033;-66
2021/11/07 03:02:03;;;;;;;20.90;6.15;;;;;;;-142.75;100.00;77153.00;5010333;28;20025;-66
2021/11/07 03:04:30;;;;;;;18.50;5.82;;;;;;;-142.75;100.00;77156.94;5010659;28;20030;-66
2021/11/07 03:06:56;;;;;;;26.35;6.05;;;;;;;-142.75;100.00;77156.94;5010607;28;20049;-66
2021/11/07 03:09:31;;;;;;;17.83;5.18;;;;;;;-142.75;100.00;77149.06;5010649;28;20030;-66
2021/11/07 03:11:58;;;;;;;17.88;5.07;;;;;;;-142.75;100.00;77141.19;5010047;28;20022;-66
2021/11/07 03:14:32;;;;;;;12.85;5.20;;;;;;;-142.75;100.00;77153.00;4993310;28;20442;-66
2021/11/07 03:16:58;;;;;;;17.08;5.72;;;;;;;-142.75;100.00;77164.81;5010923;28;20152;-66
2021/11/07 03:19:26;;;;;;;15.20;4.13;;;;;;;-142.75;100.00;77172.69;5010407;28;20113;-66
2021/11/07 03:21:53;;;;;;;15.40;4.07;;;;;;;-142.75;100.00;77156.94;5009619;28;20030;-66
2021/11/07 03:24:19;;;;;;;16.92;4.05;;;;;;;-142.75;100.00;77178.59;5010361;28;20037;-66
2021/11/07 03:26:46;;;;;;;22.17;4.85;;;;;;;-142.75;100.00;77182.53;5010785;28;20454;-66
2021/11/07 03:29:11;;;;;;;15.43;3.55;;;;;;;-142.75;100.00;77180.56;5009082;28;20018;-67
2021/11/07 03:34:30;;;;;;;23.73;4.20;;;;;;;-142.75;100.00;77184.50;5010175;28;20724;-66
2021/11/07 03:36:58;;;;;;;12.75;3.00;;;;;;;-142.75;100.00;77192.38;5010293;28;20030;-66
2021/11/07 03:39:26;;;;;;;12.05;2.78;;;;;;;-142.75;100.00;77174.66;5009933;28;20506;-66
2021/11/07 03:41:52;;;;;;;12.40;2.90;;;;;;;-142.75;100.00;77227.81;5009476;28;20028;-66
2021/11/07 03:44:20;;;;;;;13.20;2.67;;;;;;;-142.75;100.00;77231.75;5010406;28;20022;-66
2021/11/07 03:46:49;;;;;;;19.40;2.88;;;;;;;-142.75;100.00;77233.72;5010766;28;20025;-67
2021/11/07 03:49:15;;;;;;;13.63;2.75;;;;;;;-142.75;100.00;77235.69;5009671;28;20032;-66
2021/11/07 03:51:41;;;;;;;;;;;;;;;-142.75;100.00;77225.84;5009939;28;20029;-66
2021/11/07 03:54:08;;;;;;;15.48;2.35;;;;;;;-142.75;100.00;77231.75;5009855;28;19913;-66
2021/11/07 03:56:34;;;;;;;9.60;2.30;;;;;;;-142.75;98.91;77229.78;5009761;28;20053;-66
2021/11/07 03:58:59;;;;;;;14.55;2.58;;;;;;;-142.75;98.18;77235.69;4992248;28;20095;-66
2021/11/07 04:01:25;;;;;;;15.20;2.70;;;;;;;-142.75;97.90;77231.75;5008830;28;20026;-66
2021/11/07 04:03:50;;;;;;;13.82;3.30;;;;;;;-142.75;97.58;77217.97;4991928;28;20566;-66
2021/11/07 04:06:17;;;;;;;14.52;2.85;;;;;;;-142.75;97.67;77208.13;4991939;28;20044;-67
2021/11/07 04:08:43;;;;;;;10.57;1.98;;;;;;;-142.75;97.16;77217.97;5009949;28;20029;-67
2021/11/07 04:11:09;;;;;;;16.77;2.67;;;;;;;-142.75;98.32;77212.06;4991301;28;20068;-66
2021/11/07 04:13:39;;;;;;;11.48;2.42;;;;;;;-142.75;97.25;77227.81;5009597;28;20034;-67
2021/11/07 04:16:07;;;;;;;16.67;2.65;;;;;;;-142.75;97.11;77241.59;4992110;28;20061;-66
2021/11/07 04:18:32;;;;;;;15.65;1.95;;;;;;;-142.75;96.10;77227.81;5009385;28;20029;-66
2021/11/07 04:20:58;;;;;;;17.95;2.58;;;;;;;-142.75;95.82;77235.69;5008651;28;20109;-66
2021/11/07 04:23:23;;;;;;;12.27;2.30;;;;;;;-142.75;96.30;77263.25;5009169;28;20033;-66
2021/11/07 04:25:49;;;;;;;14.00;2.55;;;;;;;-142.75;96.45;77249.47;5009301;28;20060;-66
2021/11/07 04:28:14;;;;;;;17.58;2.55;;;;;;;-142.75;96.87;77243.56;5009308;28;20033;-66
2021/11/07 04:30:39;;;;;;;13.95;2.88;;;;;;;-142.75;96.35;77243.56;5008716;28;20028;-66
2021/11/07 04:33:04;;;;;;;16.55;2.63;;;;;;;-142.75;96.20;77267.19;4991373;28;20052;-66
2021/11/07 04:35:30;;;;;;;12.50;2.20;;;;;;;-142.75;96.39;77243.56;5009257;28;20466;-66
2021/11/07 04:37:56;;;;;;;17.90;2.92;;;;;;;-142.75;96.71;77233.72;5009071;28;20114;-66
2021/11/07 04:40:24;;;;;;;16.60;2.55;;;;;;;-142.75;97.05;77239.63;5008042;28;20040;-66
2021/11/07 04:42:50;;;;;;;10.95;2.28;;;;;;;-142.75;97.53;77249.47;5008969;28;20446;-66
2021/11/07 04:45:16;;;;;;;15.45;2.58;;;;;;;-142.75;96.83;77212.06;5009410;28;20021;-66
2021/11/07 04:47:42;;;;;;;11.10;2.75;;;;;;;-142.75;96.82;77208.13;5009239;28;20442;-66
2021/11/07 04:50:08;;;;;;;13.50;2.80;;;;;;;-142.75;96.83;77223.88;5008158;28;20024;-66
2021/11/07 04:52:34;;;;;;;13.98;2.58;;;;;;;-142.75;97.46;77208.13;5008914;28;20034;-66
2021/11/07 04:55:00;;;;;;;17.70;3.10;;;;;;;-142.75;98.09;77194.34;5008793;28;20033;-66
2021/11/07 04:57:25;;;;;;;11.77;2.60;;;;;;;-142.75;98.74;77216.00;5008822;28;20077;-66
2021/11/07 04:59:50;;;;;;;14.20;2.80;;;;;;;-142.75;99.31;77212.06;5008103;28;20030;-66
2021/11/07 05:02:16;;;;;;;16.95;2.83;;;;;;;-142.75;97.91;77225.84;5008702;28;20026;-66
2021/11/07 05:04:41;;;;;;;15.52;2.72;;;;;;;-142.75;97.10;77219.94;5008697;28;20026;-66
2021/11/07 05:07:07;;;;;;;17.42;2.80;;;;;;;-142.75;96.86;77237.66;5008737;28;20402;-67
2021/11/07 05:09:32;;;;;;;13.45;3.08;;;;;;;-142.75;96.87;77231.75;5008632;28;20028;-66
2021/11/07 05:11:58;;;;;;;16.55;3.40;;;;;;;-142.75;96.50;77251.44;5007840;28;20401;-66
2021/11/07 05:14:23;;;;;;;16.80;3.00;;;;;;;-142.75;94.30;77233.72;4990808;28;20034;-66
2021/11/07 05:16:48;;;;;;;19.83;3.17;;;;;;;-142.75;92.08;77247.50;4991280;28;20369;-66
2021/11/07 05:19:14;;;;;;;11.75;2.75;;;;;;;-142.75;90.43;77239.63;5008492;28;20030;-66
2021/11/07 05:21:40;;;;;;;16.30;2.28;;;;;;;-142.75;90.35;77235.69;4990305;28;20026;-67
2021/11/07 05:24:06;;;;;;;16.65;2.35;;;;;;;-142.75;89.03;77237.66;5008367;28;20022;-66
2021/11/07 05:26:33;;;;;;;15.63;2.45;;;;;;;-142.75;88.93;77243.56;5008399;28;20033;-66
2021/11/07 05:28:58;;;;;;;19.50;2.60;;;;;;;-142.75;89.25;77249.47;4990582;28;20438;-66
2021/11/07 05:31:24;;;;;;;14.73;3.28;;;;;;;-142.75;88.83;77241.59;5007265;28;20022;-66
2021/11/07 05:33:49;;;;;;;21.75;2.75;;;;;;;-142.75;89.31;77243.56;5007965;28;20018;-66
2021/11/07 05:36:14;;;;;;;16.95;3.00;;;;;;;-142.75;89.64;77243.56;5008322;28;20109;-66
2021/11/07 05:38:40;;;;;;;19.95;3.22;;;;;;;-142.75;90.13;77243.56;5008574;28;20411;-66
2021/11/07 05:41:05;;;;;;;13.07;2.63;;;;;;;-142.75;90.08;77237.66;5007236;28;20491;-66
2021/11/07 05:43:30;;;;;;;16.50;2.58;;;;;;;-142.75;89.03;77257.34;5008154;28;20487;-66
2021/11/07 05:45:56;;;;;;;12.57;2.75;;;;;;;-142.75;88.45;77247.50;5008849;28;20025;-66
2021/11/07 05:48:21;;;;;;;15.88;2.78;;;;;;;-142.75;86.38;77255.38;5008118;28;20022;-66
2021/11/07 05:50:48;;;;;;;18.10;2.60;;;;;;;-142.75;85.62;77253.41;5007945;28;20049;-66
2021/11/07 05:53:13;;;;;;;20.98;2.33;;;;;;;-142.75;86.13;77263.25;5011445;28;20030;-67
2021/11/07 05:55:39;;;;;;;19.55;2.80;;;;;;;-142.75;85.33;77255.38;5012537;28;20017;-66
2021/11/07 05:58:04;;;;;;;15.52;3.15;;;;;;;-142.75;84.86;77247.50;5011806;28;20037;-66
2021/11/07 06:00:30;;;;;;;16.30;2.65;;;;;;;-142.75;84.90;77259.31;5011205;28;20022;-66
2021/11/07 06:02:56;;;;;;;20.13;2.85;;;;;;;-142.75;84.64;77271.13;5011859;28;20368;-66
2021/11/07 06:05:22;;;;;;;17.25;2.55;;;;;;;-142.75;85.91;77294.75;5044769;22;20057;-68
2021/11/07 06:07:49;;;;;;;15.60;2.70;;;;;;;-142.75;86.18;77294.75;5024735;28;20037;-68
2021/11/07 06:10:16;;;;;;;15.18;3.30;;;;;;;-142.75;86.53;77302.63;5028872;28;20031;-69
2021/11/07 06:12:41;;;;;;;16.73;3.50;;;;;;;-142.75;86.44;77310.50;5026277;28;20022;-68
2021/11/07 06:15:08;;;;;;;16.13;2.40;;;;;;;-142.75;87.36;77314.44;5005767;28;20033;-69
2021/11/07 06:17:34;;;;;;;22.15;3.00;;;;;;;-142.75;87.61;77320.34;5020693;28;20474;-69
2021/11/07 06:19:59;;;;;;;18.20;2.78;;;;;;;-142.75;87.63;77320.34;5004579;28;20053;-69
2021/11/07 06:22:24;;;;;;;16.55;3.03;;;;;;;-142.75;87.49;77338.06;5002632;28;20025;-69
2021/11/07 06:24:50;;;;;;;20.60;3.40;;;;;;;-142.75;87.67;77345.94;5019600;28;20025;-67
2021/11/07 06:27:16;;;;;;;18.42;2.90;;;;;;;-142.75;88.24;77353.81;5008325;28;20025;-69
2021/11/07 06:29:42;;;;;;;17.65;3.13;;;;;;;-142.75;88.63;77357.75;5023990;28;20032;-69
2021/11/07 06:32:08;;;;;;;17.02;2.85;;;;;;;-142.75;89.27;77361.69;5000728;28;20069;-69
2021/11/07 06:34:36;;;;;;;18.23;2.70;;;;;;;-142.75;89.77;77361.69;5017234;28;20049;-69
2021/11/07 06:37:03;;;;;;;19.45;2.75;;;;;;;-142.75;89.75;77361.69;5002205;28;20529;-70
2021/11/07 06:39:29;;;;;;;16.42;2.95;;;;;;;-142.75;89.42;77361.69;5026664;28;20017;-68
2021/11/07 06:41:54;;;;;;;17.30;2.63;;;;;;;-142.75;89.67;77367.59;5023291;28;20128;-70
2021/11/07 06:44:20;;;;;;;18.35;3.20;;;;;;;-142.75;90.03;77377.44;5019042;28;20060;-69
2021/11/07 06:46:45;;;;;;;17.80;2.50;;;;;;;-142.75;90.42;77373.50;5026428;28;20527;-69
2021/11/07 06:49:13;;;;;;;23.23;3.03;;;;;;;-142.75;90.74;77381.38;5003856;28;20033;-70
2021/11/07 06:51:39;;;;;;;16.17;2.95;;;;;;;-142.75;90.71;77373.50;5015018;28;20101;-69
2021/11/07 06:54:05;;;;;;;18.10;2.75;;;;;;;-142.75;90.17;77395.16;5022268;28;20108;-69
2021/11/07 06:56:31;;;;;;;15.70;2.58;;;;;;;-142.75;89.92;77383.34;5016745;28;20590;-68
2021/11/07 06:58:57;;;;;;;;;;;;;;;-142.75;90.66;77395.16;5020086;28;20029;-69
2021/11/07 07:01:23;;;;;;;17.60;2.42;;;;;;;-142.75;90.19;77397.13;5020260;28;19917;-69
2021/11/07 07:03:49;;;;;;;18.23;2.95;;;;;;;-142.75;89.36;77391.22;5016286;28;20088;-70
2021/11/07 07:06:15;;;;;;;14.07;2.28;;;;;;;-142.75;89.71;77397.13;5017961;28;20029;-69
2021/11/07 07:08:47;;;;;;;14.38;2.45;;;;;;;-142.75;88.96;77381.38;5018515;28;20034;-69
2021/11/07 07:11:15;;;;;;;13.30;2.20;;;;;;;-142.75;88.45;77379.41;5016486;28;20025;-68
2021/11/07 07:26:44;;;;;;;14.15;2.80;;;;;;;-142.75;89.30;77349.88;5016773;28;20041;-69
2021/11/07 07:34:25;;;;;;;22.92;3.17;;;;;;;-142.75;88.57;77324.28;5019142;28;20036;-70
2021/11/07 07:36:53;;;;;;;22.60;3.53;;;;;;;-142.75;87.47;77324.28;5000192;28;20056;-69
2021/11/07 07:39:19;;;;;;;19.90;2.55;;;;;;;-142.75;86.98;77318.38;5024759;28;20032;-71
2021/11/07 07:41:45;;;;;;;20.35;2.83;;;;;;;-142.75;86.44;77318.38;5001885;28;20380;-68
2021/11/07 07:44:11;;;;;;;17.35;2.95;;;;;;;-142.75;86.56;77330.19;5013894;28;20032;-70
2021/11/07 07:46:44;;;;;;;19.27;2.92;;;;;;;-142.75;86.89;77349.88;5019708;28;20547;-69
2021/11/07 07:49:16;;;;;;;18.65;2.67;;;;;;;-142.75;86.72;77353.81;5024123;28;20084;-69
2021/11/07 07:51:42;;;;;;;11.00;2.13;;;;;;;-142.75;87.89;77357.75;5020293;28;20419;-70
2021/11/07 07:54:08;;;;;;;16.80;2.20;;;;;;;-142.75;87.75;77326.25;5019996;28;20027;-69
2021/11/07 07:56:34;;;;;;;;;;;;;;;-142.75;87.54;77322.31;5000273;28;20025;-69
2021/11/07 07:59:00;;;;;;;20.95;2.75;;;;;;;-142.75;87.42;77314.44;5023353;28;19975;-70
2021/11/07 08:01:27;;;;;;;14.07;2.53;;;;;;;-142.75;87.47;77306.56;5019040;28;20068;-68
2021/11/07 08:03:53;;;;;;;14.98;2.53;;;;;;;-142.75;86.71;77286.88;5015743;28;20112;-69
2021/11/07 08:06:19;;;;;;;19.25;2.65;;;;;;;-142.75;85.79;77239.63;5024162;28;20024;-70
2021/11/07 08:08:44;;;;;;;11.82;2.15;;;;;;;-142.75;84.26;77196.31;5017121;28;20117;-71
2021/11/07 08:11:10;;;;;;;13.07;2.10;;;;;;;-142.75;82.97;77178.59;5017365;28;20521;-67
2021/11/07 08:13:35;;;;;;;14.43;2.67;;;;;;;-142.75;82.16;77180.56;5023698;28;20017;-69
2021/11/07 08:16:01;;;;;;;24.73;2.83;;;;;;;-142.75;82.19;77216.00;5017168;28;20631;-71
2021/11/07 08:18:26;;;;;;;14.30;2.28;;;;;;;-142.75;81.84;77231.75;4995065;28;20395;-68
2021/11/07 08:20:52;;;;;;;12.02;2.63;;;;;;;-142.75;82.90;77255.38;5017444;28;20018;-69
2021/11/07 08:23:22;;;;;;;19.58;2.80;;;;;;;-142.75;83.79;77253.41;5014080;28;20026;-69
2021/11/07 08:25:47;;;;;;;18.13;2.35;;;;;;;-142.75;84.39;77275.06;5020756;28;20082;-68
2021/11/07 08:28:15;;;;;;;14.65;2.90;;;;;;;-142.75;83.31;77259.31;5021164;28;20053;-69
2021/11/07 08:30:42;;;;;;;21.30;2.85;;;;;;;-142.75;83.05;77217.97;5015808;28;20116;-69
2021/11/07 08:33:07;;;;;;;;;;;;;;;-142.75;82.27;77180.56;5016828;28;20022;-69
2021/11/07 08:35:37;;;;;;;22.77;2.90;;;;;;;-142.75;81.31;77117.56;4996848;28;20362;-69
2021/11/07 08:38:09;;;;;;;20.02;2.97;;;;;;;-142.75;79.15;77095.91;5015332;28;20072;-72
2021/11/07 08:40:58;;;;;;;20.45;2.95;;;;;;;-142.75;79.50;77129.38;5020320;28;20483;-69
2021/11/07 09:05:07;;;;;;;17.38;2.30;;;;;;;-142.75;82.45;77231.75;5020212;28;20052;-70
2021/11/07 09:10:25;;;;;;;19.35;3.70;;;;;;;-142.75;78.10;77076.22;5015795;28;20389;-73
2021/11/07 09:12:51;;;;;;;19.85;3.00;;;;;;;-142.75;75.95;77060.47;5001688;28;20034;-70
2021/11/07 09:15:19;;;;;;;14.45;2.28;;;;;;;-142.75;76.11;77088.03;5005902;28;20402;-70
2021/11/07 09:17:46;;;;;;;17.75;2.55;;;;;;;-142.75;76.00;77091.97;5015589;28;20017;-70
2021/11/07 09:20:19;;;;;;;21.08;3.17;;;;;;;-142.75;77.13;77119.53;5010952;28;20103;-70
2021/11/07 09:22:55;;;;;;;16.92;2.67;;;;;;;-142.75;76.93;77149.06;5016594;28;20022;-71
2021/11/07 09:25:24;;;;;;;18.33;2.72;;;;;;;-142.75;78.50;77158.91;5018125;28;20055;-69
2021/11/07 09:27:56;;;;;;;17.73;2.70;;;;;;;-142.75;77.95;77153.00;5016161;28;20026;-69
2021/11/07 09:38:27;;;;;;;15.82;3.08;;;;;;;-142.75;77.43;77133.31;5017830;28;20044;-70
2021/11/07 09:46:34;;;;;;;18.00;2.67;;;;;;;-142.75;77.75;77162.84;5019098;28;20497;-70
2021/11/07 09:49:12;;;;;;;14.57;3.78;;;;;;;-142.75;77.61;77168.75;5023818;28;20028;-71
2021/11/07 09:51:37;;;;;;;20.98;2.83;;;;;;;-142.75;76.63;77188.44;5016293;28;20026;-70
2021/11/07 09:54:03;;;;;;;18.92;2.60;;;;;;;-142.75;77.04;77156.94;5016134;28;20045;-69
2021/11/07 09:56:29;;;;;;;;;;;;;;;-142.75;76.85;77135.28;5015261;28;20030;-68
2021/11/07 09:58:57;;;;;;;18.73;2.38;;;;;;;-142.75;75.65;77086.06;5008157;28;19963;-69
2021/11/07 10:01:23;;;;;;;19.13;2.78;;;;;;;-142.75;74.85;77062.44;5017830;28;20029;-69
2021/11/07 10:03:50;;;;;;;16.65;3.08;;;;;;;-142.75;73.05;76991.56;5013435;28;20053;-69
2021/11/07 10:06:57;;;;;;;17.98;2.88;;;;;;;-142.75;70.77;76910.84;4991333;28;20021;-69
2021/11/07 10:09:35;;;;;;;16.55;2.65;;;;;;;-142.75;68.73;76924.63;5021578;28;20033;-69
2021/11/07 10:12:13;;;;;;;16.42;2.92;;;;;;;-142.75;68.34;76946.28;5014066;28;20083;-69
2021/11/07 10:14:59;;;;;;;13.93;2.75;;;;;;;-142.75;68.64;76893.13;5014793;28;20113;-69
2021/11/07 10:17:32;;;;;;;17.13;2.72;;;;;;;-142.75;67.19;76893.13;5010418;28;20030;-69
2021/11/07 10:20:21;;;;;;;15.45;2.35;;;;;;;-142.75;65.75;76899.03;5010636;28;20432;-68
2021/11/07 10:23:11;;;;;;;9.98;1.95;;;;;;;-142.75;66.02;76810.44;5011778;28;20117;-69
2021/11/07 10:25:46;;;;;;;12.07;2.15;;;;;;;-142.75;65.06;76796.69;5019314;28;20040;-68
2021/11/07 10:28:22;;;;;;;16.73;2.50;;;;;;;-142.75;64.41;76804.53;5011322;28;20068;-69
2021/11/07 10:31:14;;;;;;;15.75;2.53;;;;;;;-142.75;65.08;76820.28;5014966;28;20398;-70
2021/11/07 10:52:43;;;;;;;18.00;2.63;;;;;;;-142.75;66.65;76895.09;5014864;28;20120;-71
2021/11/07 10:55:17;;;;;;;11.32;1.85;;;;;;;-142.75;66.58;76881.31;5019785;28;20029;-70
2021/11/07 10:57:51;;;;;;;20.02;2.92;;;;;;;-142.75;67.32;76873.44;5021011;28;20124;-70
2021/11/07 11:00:25;;;;;;;12.73;2.58;;;;;;;-142.75;67.25;76865.56;5020802;28;20033;-70
2021/11/07 11:02:58;;;;;;;14.48;2.15;;;;;;;-142.75;65.58;76806.50;5020661;28;20017;-70
2021/11/07 11:05:29;;;;;;;19.30;2.67;;;;;;;-142.75;63.86;76830.13;5024338;28;20033;-71
2021/11/07 11:08:04;;;;;;;13.85;2.20;;;;;;;-142.75;64.04;76881.31;5001123;28;20555;-70
2021/11/07 11:10:50;;;;;;;8.98;1.90;;;;;;;-142.75;64.14;76863.59;5002593;28;20163;-69
2021/11/07 11:13:28;;;;;;;20.30;3.15;;;;;;;-142.75;64.41;76857.69;5017039;28;20021;-69
2021/11/07 11:24:23;;;;;;;16.90;3.08;;;;;;;-142.75;64.44;76991.56;5021379;28;20033;-70
2021/11/07 11:32:07;;;;;;;14.13;2.65;;;;;;;-142.75;61.87;76853.75;5006471;28;20034;-71
2021/11/07 11:34:38;;;;;;;18.98;3.47;;;;;;;-142.75;60.74;76749.44;5011529;28;20025;-71
2021/11/07 11:37:18;;;;;;;19.55;3.20;;;;;;;-142.75;59.23;76692.34;5013398;28;20686;-69
2021/11/07 11:39:48;;;;;;;17.38;2.80;;;;;;;-142.75;57.10;76700.22;4996118;28;20056;-70
2021/11/07 11:42:24;;;;;;;18.45;3.28;;;;;;;-142.75;57.70;76684.47;5016629;28;20029;-70
2021/11/07 11:44:53;;;;;;;13.85;3.13;;;;;;;-142.75;58.96;76719.91;5017009;28;20053;-70
2021/11/07 11:47:38;;;;;;;15.77;2.70;;;;;;;-142.75;58.23;76692.34;4994556;28;20548;-70
2021/11/07 11:50:26;;;;;;;14.63;2.63;;;;;;;-142.75;59.00;76725.81;5009463;28;20047;-70
2021/11/07 11:55:31;;;;;;;11.98;2.78;;;;;;;-142.75;57.66;76645.09;5018414;28;20037;-70
2021/11/07 12:03:30;;;;;;;17.20;2.97;;;;;;;-142.75;61.12;76877.38;5017710;28;20120;-71
2021/11/07 12:06:14;;;;;;;16.13;2.80;;;;;;;-142.75;64.08;76934.47;5019590;28;20112;-72
2021/11/07 12:08:44;;;;;;;17.77;3.50;;;;;;;-142.75;66.05;76954.16;5038819;22;20040;-67
2021/11/07 12:11:42;;;;;;;14.20;2.75;;;;;;;-142.75;67.40;76987.63;5007310;28;20068;-67
2021/11/07 12:14:19;;;;;;;19.48;3.25;;;;;;;-142.75;67.76;76983.69;5007366;28;20092;-68
2021/11/07 12:16:52;;;;;;;21.30;3.17;;;;;;;-142.75;66.70;76936.44;4991086;28;20021;-69
2021/11/07 12:19:18;;;;;;;26.48;4.43;;;;;;;-142.75;65.80;76936.44;5008133;28;20080;-68
2021/11/07 12:21:47;;;;;;;19.48;3.17;;;;;;;-142.75;66.26;76942.34;4987334;28;20017;-69
2021/11/07 12:24:13;;;;;;;20.13;3.58;;;;;;;-142.75;67.83;76924.63;5007913;28;20399;-69
2021/11/07 12:26:38;;;;;;;;;;;;;;;-142.75;66.95;76930.53;4990500;28;20072;-68
2021/11/07 12:29:04;;;;;;;17.40;3.25;;;;;;;-142.75;66.62;76960.06;5007955;28;20019;-68
2021/11/07 12:31:31;;;;;;;;;;;;;;;-142.75;66.30;76960.06;5007099;28;20395;-68
2021/11/07 12:34:11;;;;;;;16.02;2.63;;;;;;;-142.75;66.58;76964.00;5008606;28;19913;-68
2021/11/07 12:42:26;;;;;;;15.38;2.78;;;;;;;-142.75;66.91;76926.59;5008399;28;20569;-68
2021/11/07 12:44:53;;;;;;;;;;;;;;;-142.75;67.20;76912.81;5008999;28;20029;-68
2021/11/07 12:47:24;;;;;;;17.80;3.30;;;;;;;-142.75;68.51;76960.06;5008835;28;19917;-68
2021/11/07 12:50:04;;;;;;;18.38;3.85;;;;;;;-142.75;68.42;76938.41;5007572;28;20108;-68
2021/11/07 12:52:29;;;;;;;18.08;3.45;;;;;;;-142.75;68.70;76950.22;5008386;28;20029;-68
2021/11/07 12:54:54;;;;;;;24.83;4.25;;;;;;;-142.75;67.77;76916.75;5008162;28;20029;-68
2021/11/07 12:57:20;;;;;;;;;;;;;;;-142.75;67.25;76934.47;5008493;28;20403;-68
2021/11/07 12:59:53;;;;;;;18.10;3.17;;;;;;;-142.75;68.51;76989.59;5008223;28;19920;-69
2021/11/07 13:02:21;;;;;;;16.00;3.35;;;;;;;-142.75;69.01;77027.00;5008315;28;20488;-69
2021/11/07 13:05:17;;;;;;;16.35;2.70;;;;;;;-142.75;69.25;77019.13;4990754;28;20029;-69
2021/11/07 13:07:55;;;;;;;23.60;3.42;;;;;;;-142.75;70.85;77028.97;5008127;28;20024;-68
2021/11/07 13:10:38;;;;;;;24.00;3.28;;;;;;;-142.75;70.81;77068.34;5007329;28;20034;-68
2021/11/07 13:13:09;;;;;;;26.88;4.50;;;;;;;-142.75;71.58;77056.53;5008061;28;20018;-68
2021/11/07 13:18:17;;;;;;;23.88;3.75;;;;;;;-142.75;72.42;77090.00;5007844;28;20033;-69
2021/11/07 13:31:06;;;;;;;25.73;3.70;;;;;;;-142.75;74.65;77121.50;5007223;28;20399;-68
2021/11/07 13:33:32;;;;;;;25.13;3.63;;;;;;;-142.75;76.85;77133.31;5007750;28;20411;-68
2021/11/07 13:35:59;;;;;;;21.60;3.13;;;;;;;-142.75;78.17;77145.13;5007486;28;20029;-68
2021/11/07 13:38:26;;;;;;;19.38;3.58;;;;;;;-142.75;77.04;77135.28;5005952;28;20038;-69
2021/11/07 13:40:52;;;;;;;18.55;3.10;;;;;;;-142.75;77.22;77109.69;5006801;28;20017;-68